Time;durP1;ratioP1;P1;durP2;ratioP2;P2;SDS_P1;SDS_P2;PMS_P1;PMS_P2;Temp;Humidity;BMP_temperature;BMP_pressure;BME280_temperature;BME280_humidity;BME280_pressure;Samples;Min_cycle;Max_cycle;Signal;HPM_P1;HPM_P2
2021/08/12 00:00:04;;;;;;;33.67;25.40;;;;;;;23.49;100.00;100344.22;1797103;77;21458;-87
2021/08/12 00:02:32;;;;;;;25.00;22.20;;;;;;;23.46;100.00;100350.77;1809482;78;21062;-88
2021/08/12 00:04:59;;;;;;;22.32;20.12;;;;;;;23.45;100.00;100361.59;1799092;78;21011;-88
2021/08/12 00:07:26;;;;;;;26.55;18.65;;;;;;;23.37;100.00;100356.48;1793495;78;21466;-87
2021/08/12 00:09:54;;;;;;;28.57;19.48;;;;;;;23.28;100.00;100356.70;1794085;77;21096;-89
2021/08/12 00:12:21;;;;;;;25.27;21.25;;;;;;;23.27;100.00;100365.72;1829339;77;21026;-86
2021/08/12 00:14:48;;;;;;;37.50;27.90;;;;;;;23.25;100.00;100357.62;1810505;77;21155;-90
2021/08/12 00:17:15;;;;;;;43.05;31.75;;;;;;;23.21;100.00;100358.55;1801171;77;21057;-86
2021/08/12 00:19:42;;;;;;;50.43;33.30;;;;;;;23.21;100.00;100371.02;1809446;77;21006;-88
2021/08/12 00:22:09;;;;;;;46.77;32.65;;;;;;;23.21;100.00;100361.20;1805267;77;21703;-86
2021/08/12 00:24:36;;;;;;;42.58;30.23;;;;;;;23.23;100.00;100372.45;1778124;77;20999;-89
2021/08/12 00:27:03;;;;;;;31.93;23.60;;;;;;;23.23;100.00;100367.66;1788205;78;21040;-87
2021/08/12 00:29:32;;;;;;;29.57;22.32;;;;;;;23.22;100.00;100367.34;1810890;78;21003;-86
2021/08/12 00:31:59;;;;;;;25.50;20.08;;;;;;;23.20;100.00;100368.05;1813221;78;21029;-88
2021/08/12 00:34:27;;;;;;;23.38;20.43;;;;;;;23.19;100.00;100371.23;1796050;78;21643;-87
2021/08/12 00:36:54;;;;;;;24.57;20.82;;;;;;;23.17;100.00;100370.58;1796646;78;21008;-86
2021/08/12 00:39:21;;;;;;;22.42;20.02;;;;;;;23.13;100.00;100370.67;1771980;78;21199;-88
2021/08/12 00:41:48;;;;;;;23.95;19.98;;;;;;;23.14;100.00;100381.11;1804826;78;21615;-89
2021/08/12 00:44:16;;;;;;;26.00;20.43;;;;;;;23.19;100.00;100376.55;1782435;79;21001;-88
2021/08/12 00:46:44;;;;;;;24.23;20.25;;;;;;;23.21;100.00;100376.33;1757263;80;20988;-89
2021/08/12 00:49:13;;;;;;;24.35;20.97;;;;;;;23.23;100.00;100389.70;1720038;80;20955;-86
2021/08/12 00:51:43;;;;;;;23.90;19.67;;;;;;;23.25;100.00;100394.31;1805221;78;21785;-89
2021/08/12 00:54:11;;;;;;;20.75;18.62;;;;;;;23.26;100.00;100396.45;1791036;77;21049;-86
2021/08/12 00:56:39;;;;;;;21.15;18.02;;;;;;;23.24;100.00;100387.86;1784042;79;20992;-89
2021/08/12 00:59:07;;;;;;;24.18;18.98;;;;;;;23.22;100.00;100387.27;1814333;78;21098;-88
2021/08/12 01:01:35;;;;;;;25.95;18.82;;;;;;;23.23;100.00;100389.70;1762457;79;21072;-86
2021/08/12 01:04:03;;;;;;;21.97;18.12;;;;;;;23.23;100.00;100388.38;1778854;78;21006;-88
2021/08/12 01:06:53;;;;;;;20.75;17.42;;;;;;;23.19;100.00;100388.99;1767080;79;21112;-86
2021/08/12 01:09:34;;;;;;;23.30;18.02;;;;;;;23.11;100.00;100388.14;1760244;79;21092;-90
2021/08/12 01:12:10;;;;;;;22.35;18.73;;;;;;;23.03;100.00;100396.31;1735152;79;21022;-89
2021/08/12 01:14:59;;;;;;;25.82;19.48;;;;;;;22.87;100.00;100394.05;1765722;79;21006;-88
2021/08/12 01:17:31;;;;;;;22.17;18.77;;;;;;;22.75;100.00;100396.47;1798771;79;21760;-88
2021/08/12 01:20:21;;;;;;;20.40;18.30;;;;;;;22.64;100.00;100388.59;1761703;79;21431;-87
2021/08/12 01:22:50;;;;;;;20.57;18.23;;;;;;;22.58;100.00;100378.27;1805323;79;20951;-86
2021/08/12 01:25:28;;;;;;;23.40;18.27;;;;;;;22.56;100.00;100374.99;1785299;79;21781;-88
2021/08/12 01:28:01;;;;;;;23.90;18.27;;;;;;;22.61;100.00;100381.86;1772768;79;21002;-90
2021/08/12 01:30:33;;;;;;;25.90;18.37;;;;;;;22.64;100.00;100377.98;1777660;78;21057;-88
2021/08/12 01:33:31;;;;;;;20.45;17.25;;;;;;;22.62;100.00;100377.36;1765671;79;21056;-89
2021/08/12 01:36:03;;;;;;;23.32;18.15;;;;;;;22.60;100.00;100370.94;1781138;79;21076;-86
2021/08/12 01:38:31;;;;;;;23.30;18.50;;;;;;;22.62;100.00;100373.38;1801561;78;20986;-86
2021/08/12 01:41:00;;;;;;;26.57;19.25;;;;;;;22.69;100.00;100372.88;1782595;79;21030;-86
2021/08/12 01:43:27;;;;;;;22.93;18.85;;;;;;;22.72;100.00;100371.66;1778204;79;21139;-89
2021/08/12 01:45:59;;;;;;;23.75;20.37;;;;;;;22.72;100.00;100371.66;1759064;79;20944;-86
2021/08/12 01:48:30;;;;;;;23.70;20.32;;;;;;;22.71;100.00;100370.84;1784219;79;21520;-91
2021/08/12 01:50:59;;;;;;;25.55;19.23;;;;;;;22.69;100.00;100372.39;1773762;79;21068;-87
2021/08/12 01:53:26;;;;;;;23.05;19.77;;;;;;;22.63;100.00;100371.88;1754109;78;21050;-87
2021/08/12 01:55:54;;;;;;;24.00;20.43;;;;;;;22.58;100.00;100368.18;1791845;79;21105;-87
2021/08/12 01:58:24;;;;;;;25.35;19.85;;;;;;;22.58;100.00;100374.30;1752625;79;21033;-89
2021/08/12 02:00:54;;;;;;;28.50;19.85;;;;;;;22.58;100.00;100371.64;1735577;80;21227;-87
2021/08/12 02:03:24;;;;;;;30.48;19.90;;;;;;;22.59;100.00;100368.49;1783763;79;21552;-87
2021/08/12 02:05:52;;;;;;;25.90;17.75;;;;;;;22.58;100.00;100374.81;1783412;79;21057;-89
2021/08/12 02:08:24;;;;;;;27.85;18.42;;;;;;;22.55;100.00;100374.71;1785388;78;21087;-90
2021/08/12 02:10:52;;;;;;;20.15;17.85;;;;;;;22.52;100.00;100371.12;1805271;78;21099;-87
2021/08/12 02:13:24;;;;;;;23.20;17.75;;;;;;;22.52;100.00;100375.09;1780761;79;21040;-88
2021/08/12 02:15:49;;;;;;;25.10;16.87;;;;;;;22.50;100.00;100377.96;1803752;78;21053;-90
2021/08/12 02:18:16;;;;;;;21.95;16.67;;;;;;;22.49;100.00;100383.45;1782493;78;21028;-90
2021/08/12 02:20:54;;;;;;;20.43;16.30;;;;;;;22.49;100.00;100378.98;1783659;79;21153;-87
2021/08/12 02:23:29;;;;;;;18.35;16.55;;;;;;;22.50;100.00;100382.44;1779247;79;20998;-90
2021/08/12 02:26:07;;;;;;;16.90;15.03;;;;;;;22.51;100.00;100386.73;1786562;77;21002;-87
2021/08/12 02:28:36;;;;;;;22.60;16.95;;;;;;;22.50;100.00;100392.55;1795527;78;20975;-88
2021/08/12 02:31:05;;;;;;;18.37;16.45;;;;;;;22.47;100.00;100390.81;1798830;78;21172;-90
2021/08/12 02:33:37;;;;;;;16.62;14.98;;;;;;;22.46;100.00;100397.13;1782293;77;21022;-85
2021/08/12 02:36:05;;;;;;;18.05;14.80;;;;;;;22.46;100.00;100402.44;1807832;78;21144;-87
2021/08/12 02:38:36;;;;;;;17.37;14.83;;;;;;;22.40;100.00;100405.86;1806337;78;21549;-87
2021/08/12 02:41:10;;;;;;;16.32;14.73;;;;;;;22.33;100.00;100402.64;1787904;77;21052;-89
2021/08/12 02:43:41;;;;;;;16.32;14.73;;;;;;;22.26;100.00;100404.45;1774128;79;21128;-87
2021/08/12 02:46:10;;;;;;;18.55;15.13;;;;;;;22.22;100.00;100408.53;1812834;77;21145;-90
2021/08/12 02:48:42;;;;;;;16.35;14.65;;;;;;;22.22;100.00;100413.31;1754137;81;21159;-90
2021/08/12 02:51:10;;;;;;;17.87;15.85;;;;;;;22.17;100.00;100414.92;1744514;80;21529;-86
2021/08/12 02:53:37;;;;;;;17.35;14.98;;;;;;;22.15;100.00;100409.02;1757603;80;21185;-86
2021/08/12 02:56:10;;;;;;;28.52;16.00;;;;;;;22.20;100.00;100408.71;1761455;81;21125;-91
2021/08/12 02:58:40;;;;;;;18.48;15.53;;;;;;;22.21;100.00;100414.84;1777445;77;21834;-88
2021/08/12 03:01:11;;;;;;;18.73;16.10;;;;;;;22.24;100.00;100418.94;1718619;81;21086;-87
2021/08/12 03:03:42;;;;;;;20.80;15.32;;;;;;;22.27;100.00;100421.20;1717501;81;21093;-88
2021/08/12 03:06:14;;;;;;;17.40;15.55;;;;;;;22.31;100.00;100425.09;1728578;81;21106;-89
2021/08/12 03:08:46;;;;;;;23.70;15.08;;;;;;;22.33;100.00;100429.17;1720111;80;20990;-88
2021/08/12 03:11:18;;;;;;;23.73;16.55;;;;;;;22.32;100.00;100428.86;1792662;77;21054;-85
2021/08/12 03:13:48;;;;;;;21.82;15.63;;;;;;;22.35;100.00;100439.08;1803388;78;21086;-89
2021/08/12 03:16:15;;;;;;;19.95;15.65;;;;;;;22.40;100.00;100441.66;1814436;78;20995;-87
2021/08/12 03:18:43;;;;;;;31.40;21.30;;;;;;;22.42;100.00;100438.31;1838719;77;20994;-86
2021/08/12 03:21:14;;;;;;;62.78;36.13;;;;;;;22.48;100.00;100450.78;1792618;77;21014;-86
2021/08/12 03:23:44;;;;;;;72.95;44.23;;;;;;;22.53;100.00;100455.80;1814234;77;21903;-88
2021/08/12 03:26:12;;;;;;;46.63;29.37;;;;;;;22.55;100.00;100452.14;1794959;78;21045;-88
2021/08/12 03:28:41;;;;;;;33.30;22.85;;;;;;;22.56;100.00;100456.44;1804637;78;21398;-88
2021/08/12 03:31:08;;;;;;;21.30;17.65;;;;;;;22.57;100.00;100465.52;1808101;77;21031;-87
2021/08/12 03:33:37;;;;;;;16.52;14.87;;;;;;;22.58;100.00;100463.70;1810150;78;21042;-90
2021/08/12 03:36:04;;;;;;;19.57;15.78;;;;;;;22.53;100.00;100465.09;1835958;77;21821;-88
2021/08/12 03:38:34;;;;;;;19.07;14.98;;;;;;;22.44;100.00;100462.81;1801728;77;21512;-87
2021/08/12 03:41:00;;;;;;;18.65;16.45;;;;;;;22.35;100.00;100460.82;1834916;77;21128;-89
2021/08/12 03:43:27;;;;;;;17.80;15.83;;;;;;;22.23;100.00;100461.89;1819340;77;21042;-90
2021/08/12 03:45:55;;;;;;;20.60;16.62;;;;;;;22.11;100.00;100464.76;1806081;77;21073;-89
2021/08/12 03:48:22;;;;;;;22.55;16.17;;;;;;;22.00;100.00;100468.78;1793484;78;21691;-86
2021/08/12 03:50:49;;;;;;;20.17;16.25;;;;;;;21.87;100.00;100465.53;1737654;80;21079;-90
2021/08/12 03:53:16;;;;;;;18.87;16.70;;;;;;;21.78;100.00;100466.69;1759039;80;21065;-88
2021/08/12 03:55:43;;;;;;;20.65;16.35;;;;;;;21.70;100.00;100474.29;1724309;81;21095;-87
2021/08/12 03:58:10;;;;;;;22.85;16.30;;;;;;;21.62;100.00;100485.83;1735239;80;21093;-89
2021/08/12 04:00:37;;;;;;;20.08;16.97;;;;;;;21.54;100.00;100481.47;1735161;80;21814;-87
2021/08/12 04:03:05;;;;;;;17.48;15.50;;;;;;;21.52;100.00;100497.22;1749801;80;21026;-89
2021/08/12 04:05:33;;;;;;;21.57;16.20;;;;;;;21.50;100.00;100494.77;1803583;78;21116;-89
2021/08/12 04:08:00;;;;;;;18.90;16.02;;;;;;;21.51;100.00;100498.26;1836669;77;21018;-89
2021/08/12 04:10:28;;;;;;;18.92;17.10;;;;;;;21.50;100.00;100497.42;1812566;78;21038;-92
2021/08/12 04:12:55;;;;;;;20.90;16.25;;;;;;;21.52;100.00;100494.09;1740963;81;21774;-88
2021/08/12 04:15:22;;;;;;;19.87;16.27;;;;;;;21.54;100.00;100496.53;1753463;80;21053;-87
2021/08/12 04:17:49;;;;;;;16.85;15.23;;;;;;;21.56;100.00;100491.88;1744849;80;21042;-89
2021/08/12 04:20:16;;;;;;;20.35;16.23;;;;;;;21.59;100.00;100497.64;1747553;80;21043;-87
2021/08/12 04:22:43;;;;;;;17.90;15.55;;;;;;;21.63;100.00;100494.09;1720779;81;21113;-88
2021/08/12 04:25:12;;;;;;;17.35;15.55;;;;;;;21.68;100.00;100494.33;1726197;81;21024;-88
2021/08/12 04:27:39;;;;;;;16.20;14.60;;;;;;;21.70;100.00;100490.19;1749720;79;21085;-87
2021/08/12 04:30:08;;;;;;;15.72;14.00;;;;;;;21.73;100.00;100495.92;1747517;80;21612;-91
2021/08/12 04:32:38;;;;;;;16.73;15.13;;;;;;;21.78;100.00;100503.30;1802293;78;21607;-89
2021/08/12 04:35:07;;;;;;;17.15;14.90;;;;;;;21.84;100.00;100487.11;1778391;79;21053;-88
2021/08/12 04:37:44;;;;;;;15.98;14.45;;;;;;;21.89;100.00;100491.34;1786029;79;21044;-90
2021/08/12 04:40:17;;;;;;;19.82;15.93;;;;;;;21.97;100.00;100495.17;1785560;79;21037;-87
2021/08/12 04:42:48;;;;;;;22.40;16.02;;;;;;;22.01;100.00;100489.78;1752310;79;21085;-87
2021/08/12 04:45:17;;;;;;;17.00;15.30;;;;;;;22.06;100.00;100490.04;1799618;78;21114;-91
2021/08/12 04:47:45;;;;;;;16.87;15.28;;;;;;;22.11;100.00;100484.16;1789132;78;21754;-89
2021/08/12 04:50:14;;;;;;;16.37;14.87;;;;;;;22.19;100.00;100484.48;1802542;78;21112;-89
2021/08/12 04:52:41;;;;;;;18.05;14.53;;;;;;;22.24;100.00;100487.88;1793420;77;21056;-89
2021/08/12 04:55:10;;;;;;;16.93;14.23;;;;;;;22.32;100.00;100489.86;1780533;79;21008;-90
2021/08/12 04:57:38;;;;;;;17.30;15.25;;;;;;;22.41;100.00;100488.40;1771936;77;21064;-88
2021/08/12 05:00:08;;;;;;;16.90;15.28;;;;;;;22.43;100.00;100485.05;1811497;77;20957;-86
2021/08/12 05:02:36;;;;;;;16.35;14.65;;;;;;;22.46;100.00;100485.99;1793138;77;21065;-88
2021/08/12 05:05:04;;;;;;;17.20;15.35;;;;;;;22.49;100.00;100486.91;1798731;78;20971;-88
2021/08/12 05:07:31;;;;;;;16.52;14.83;;;;;;;22.51;100.00;100492.84;1806958;78;20978;-89
2021/08/12 05:10:00;;;;;;;17.30;15.60;;;;;;;22.58;100.00;100490.23;1809833;77;21006;-89
2021/08/12 05:12:28;;;;;;;16.77;15.20;;;;;;;22.68;100.00;100493.31;1807511;77;21034;-89
2021/08/12 05:14:58;;;;;;;18.55;14.75;;;;;;;22.78;100.00;100499.06;1719661;80;21254;-89
2021/08/12 05:17:27;;;;;;;16.63;14.97;;;;;;;22.87;100.00;100497.08;1749628;79;21050;-86
2021/08/12 05:19:56;;;;;;;16.60;14.75;;;;;;;23.00;100.00;100494.45;1747343;79;21100;-89
2021/08/12 05:22:24;;;;;;;16.25;14.63;;;;;;;23.12;100.00;100503.13;1762877;81;21034;-85
2021/08/12 05:24:53;;;;;;;16.20;14.60;;;;;;;23.21;100.00;100500.63;1791022;79;21561;-85
2021/08/12 05:27:21;;;;;;;17.62;13.98;;;;;;;23.31;100.00;100505.05;1781380;77;21732;-87
2021/08/12 05:29:48;;;;;;;15.40;13.93;;;;;;;23.41;100.00;100505.17;1805372;78;21034;-87
2021/08/12 05:32:15;;;;;;;14.78;13.15;;;;;;;23.52;100.00;100500.55;1808388;78;21193;-87
2021/08/12 05:34:45;;;;;;;17.83;13.37;;;;;;;23.61;100.00;100504.66;1823942;78;20985;-85
2021/08/12 05:37:12;;;;;;;15.03;13.38;;;;;;;23.74;100.00;100507.82;1728187;81;21747;-87
2021/08/12 05:39:39;;;;;;;15.60;13.72;;;;;;;23.86;100.00;100514.66;1792063;79;21061;-89
2021/08/12 05:42:07;;;;;;;14.05;12.73;;;;;;;23.96;100.00;100521.44;1766570;79;20995;-87
2021/08/12 05:44:35;;;;;;;13.88;12.55;;;;;;;24.06;100.00;100523.17;1783072;78;21041;-86
2021/08/12 05:47:03;;;;;;;14.07;12.78;;;;;;;24.16;100.00;100523.55;1791972;78;21431;-86
2021/08/12 05:49:30;;;;;;;16.75;13.38;;;;;;;24.27;100.00;100526.11;1788189;77;21065;-88
2021/08/12 05:51:57;;;;;;;14.47;12.98;;;;;;;24.35;100.00;100521.05;1788448;77;21753;-88
2021/08/12 05:54:24;;;;;;;13.98;12.45;;;;;;;24.42;100.00;100523.17;1792305;78;21057;-87
2021/08/12 05:56:51;;;;;;;13.70;12.37;;;;;;;24.48;100.00;100522.34;1745486;79;21551;-90
2021/08/12 05:59:18;;;;;;;14.55;13.18;;;;;;;24.51;100.00;100525.11;1783365;78;20990;-87
2021/08/12 06:01:45;;;;;;;13.83;12.53;;;;;;;24.55;100.00;100522.32;1789523;79;20982;-87
2021/08/12 06:04:12;;;;;;;13.35;12.10;;;;;;;24.62;100.00;100520.98;1766418;79;21073;-85
2021/08/12 06:06:40;;;;;;;14.85;13.35;;;;;;;24.70;100.00;100527.42;1733255;79;21010;-87
2021/08/12 06:09:07;;;;;;;19.30;13.50;;;;;;;24.77;100.00;100526.05;1755648;81;21004;-89
2021/08/12 17:42:48;;;;;;;53.17;24.72;;;;;;;24.13;91.61;100786.46;1814793;79;22055;-86
2021/08/12 17:45:15;;;;;;;43.73;27.35;;;;;;;24.06;92.57;100786.47;1788047;78;20906;-85
2021/08/12 17:47:42;;;;;;;71.45;39.73;;;;;;;24.00;91.20;100790.73;1739973;79;21176;-87
2021/08/12 17:50:10;;;;;;;79.27;42.93;;;;;;;23.92;96.96;100793.02;1785231;79;21639;-87
2021/08/12 17:52:41;;;;;;;74.60;43.63;;;;;;;23.87;92.63;100791.48;1778763;78;20950;-86
2021/08/12 17:55:11;;;;;;;60.23;34.67;;;;;;;23.83;96.62;100793.41;1746752;80;21539;-88
2021/08/12 17:57:39;;;;;;;57.23;34.73;;;;;;;23.75;98.11;100798.41;1727076;80;21017;-87
2021/08/12 18:00:09;;;;;;;56.35;34.78;;;;;;;23.70;97.83;100798.99;1726944;80;21058;-88
2021/08/12 18:02:44;;;;;;;54.50;33.78;;;;;;;23.69;99.23;100815.12;1756689;80;21065;-88
2021/08/12 18:05:11;;;;;;;52.15;32.20;;;;;;;23.71;95.87;100821.06;1726670;81;20996;-88
2021/08/12 18:07:43;;;;;;;51.28;30.50;;;;;;;23.72;99.36;100826.70;1752733;80;21524;-90
2021/08/12 18:10:11;;;;;;;47.13;28.50;;;;;;;23.67;100.00;100833.93;1727179;81;20982;-89
2021/08/12 18:12:40;;;;;;;46.37;29.20;;;;;;;23.61;99.31;100830.73;1756244;81;22791;-89
2021/08/12 18:15:09;;;;;;;50.83;29.67;;;;;;;23.54;100.00;100840.52;1727475;81;21036;-89
2021/08/12 18:17:37;;;;;;;43.20;28.17;;;;;;;23.45;100.00;100837.17;1703442;80;21272;-89
2021/08/12 18:20:06;;;;;;;46.28;27.55;;;;;;;23.41;100.00;100838.08;1749183;80;21591;-88
2021/08/12 18:22:35;;;;;;;40.50;24.95;;;;;;;23.37;100.00;100835.52;1750258;80;21068;-89
2021/08/12 18:25:02;;;;;;;39.85;25.35;;;;;;;23.35;100.00;100834.88;1771168;78;21841;-90
2021/08/12 18:27:29;;;;;;;44.05;26.62;;;;;;;23.31;100.00;100833.64;1753032;81;21085;-90
2021/08/12 18:29:58;;;;;;;33.95;23.75;;;;;;;23.28;100.00;100836.15;1724341;81;21053;-89
2021/08/12 18:32:25;;;;;;;37.10;23.00;;;;;;;23.25;100.00;100838.38;1719289;82;21299;-90
2021/08/12 18:34:53;;;;;;;36.50;23.40;;;;;;;23.22;100.00;100839.59;1702726;82;21121;-89
2021/08/12 18:37:21;;;;;;;43.30;25.62;;;;;;;23.24;100.00;100849.52;1712045;83;21149;-88
2021/08/12 18:39:50;;;;;;;38.45;24.05;;;;;;;23.20;100.00;100850.91;1752961;81;20963;-89
2021/08/12 18:42:17;;;;;;;40.00;25.57;;;;;;;23.20;100.00;100848.77;1723798;82;21077;-88
2021/08/12 18:44:44;;;;;;;34.53;21.75;;;;;;;23.15;100.00;100854.11;1739219;82;21085;-88
2021/08/12 18:47:11;;;;;;;33.28;21.90;;;;;;;23.13;100.00;100851.34;1720742;82;21101;-89
2021/08/12 18:49:38;;;;;;;34.23;21.15;;;;;;;23.09;100.00;100862.05;1721252;82;21807;-89
2021/08/12 18:52:06;;;;;;;35.25;23.70;;;;;;;23.05;100.00;100861.61;1713495;82;21009;-88
2021/08/12 18:54:33;;;;;;;38.75;24.87;;;;;;;22.98;100.00;100860.22;1722034;82;21520;-89
2021/08/12 18:57:00;;;;;;;32.15;20.27;;;;;;;22.91;100.00;100862.00;1722728;82;21068;-89
2021/08/12 18:59:28;;;;;;;28.40;18.77;;;;;;;22.85;100.00;100862.25;1730164;82;21067;-88
2021/08/12 19:01:56;;;;;;;32.28;19.10;;;;;;;22.87;100.00;100861.24;1679051;83;21155;-89
2021/08/12 19:04:23;;;;;;;23.87;16.42;;;;;;;22.88;100.00;100863.70;1713337;83;20936;-88
2021/08/12 19:06:50;;;;;;;25.32;15.65;;;;;;;22.83;100.00;100867.44;1718584;82;21937;-88
2021/08/12 19:09:17;;;;;;;24.82;15.68;;;;;;;22.80;100.00;100867.32;1751579;80;21557;-89
2021/08/12 19:11:44;;;;;;;22.60;15.32;;;;;;;22.76;100.00;100875.33;1734773;82;21163;-88
2021/08/12 19:14:11;;;;;;;20.65;15.13;;;;;;;22.74;100.00;100883.17;1756621;80;21456;-88
2021/08/12 19:16:39;;;;;;;18.57;14.75;;;;;;;22.74;100.00;100872.55;1741647;80;21434;-88
2021/08/12 19:19:07;;;;;;;22.52;14.13;;;;;;;22.71;100.00;100877.74;1759685;79;21053;-89
2021/08/12 19:21:34;;;;;;;17.27;13.00;;;;;;;22.65;100.00;100883.81;1702688;83;21014;-88
2021/08/12 19:24:04;;;;;;;15.55;10.72;;;;;;;22.59;100.00;100888.03;1721650;83;21020;-89
2021/08/12 19:26:31;;;;;;;11.73;9.45;;;;;;;22.51;100.00;100888.16;1717690;82;21174;-89
2021/08/12 19:28:59;;;;;;;12.78;9.93;;;;;;;22.50;100.00;100887.83;1673202;82;21084;-88
2021/08/12 19:31:26;;;;;;;10.85;8.30;;;;;;;22.47;100.00;100887.70;1688920;83;21024;-89
2021/08/12 19:33:53;;;;;;;10.53;8.00;;;;;;;22.42;100.00;100893.25;1721529;82;21104;-90
2021/08/12 19:36:20;;;;;;;12.05;7.97;;;;;;;22.42;100.00;100897.23;1721135;82;21492;-88
2021/08/12 19:38:47;;;;;;;10.15;7.33;;;;;;;22.46;100.00;100903.82;1697532;82;21136;-88
2021/08/12 19:41:18;;;;;;;7.78;6.58;;;;;;;22.45;100.00;100898.20;1754428;80;21149;-88
2021/08/12 19:43:52;;;;;;;13.17;6.83;;;;;;;22.44;100.00;100902.66;1726965;80;21499;-88
2021/08/12 19:46:16;;;;;;;10.32;7.03;;;;;;;22.40;100.00;100902.73;1749047;80;21038;-87
2021/08/12 19:48:45;;;;;;;8.53;6.62;;;;;;;22.32;100.00;100907.59;1752024;80;21627;-87
2021/08/12 19:51:13;;;;;;;8.48;7.08;;;;;;;22.30;100.00;100911.45;1773373;79;21902;-88
2021/08/12 19:53:41;;;;;;;8.73;6.50;;;;;;;22.26;100.00;100911.00;1756603;79;21038;-87
2021/08/12 19:58:42;;;;;;;7.70;6.50;;;;;;;22.20;100.00;100909.09;1869842;76;22673;-87
2021/08/12 20:01:13;;;;;;;8.15;5.97;;;;;;;22.13;100.00;100917.48;1825749;77;21575;-87
2021/08/12 20:03:42;;;;;;;8.00;6.00;;;;;;;22.09;100.00;100906.91;1806050;77;20996;-87
2021/08/12 20:06:09;;;;;;;7.50;6.05;;;;;;;22.04;100.00;100912.27;1805153;78;21080;-88
2021/08/12 20:08:36;;;;;;;9.35;6.33;;;;;;;22.00;100.00;100911.49;1805513;78;20978;-86
2021/08/12 20:11:09;;;;;;;9.78;5.90;;;;;;;21.98;100.00;100917.47;1805413;78;21024;-87
2021/08/12 20:13:36;;;;;;;6.85;6.15;;;;;;;21.97;100.00;100914.50;1805423;78;21124;-89
2021/08/12 20:16:05;;;;;;;7.15;5.70;;;;;;;21.97;100.00;100921.13;1825789;77;20965;-88
2021/08/12 20:18:34;;;;;;;7.05;6.08;;;;;;;21.95;100.00;100922.64;1760010;79;21261;-89
2021/08/12 20:21:03;;;;;;;7.78;6.10;;;;;;;21.88;100.00;100925.70;1773980;80;20938;-89
2021/08/12 20:23:30;;;;;;;6.85;6.08;;;;;;;21.79;100.00;100922.83;1773790;78;21622;-89
2021/08/12 20:26:00;;;;;;;7.70;5.70;;;;;;;21.77;100.00;100928.31;1793859;78;20954;-88
2021/08/12 20:28:27;;;;;;;6.70;5.80;;;;;;;21.73;100.00;100925.69;1748457;80;21136;-89
2021/08/12 20:30:56;;;;;;;6.65;5.60;;;;;;;21.72;100.00;100938.62;1817136;77;21017;-89
2021/08/12 20:33:23;;;;;;;13.72;5.65;;;;;;;21.69;100.00;100931.86;1760980;77;21397;-88
2021/08/12 20:35:50;;;;;;;9.13;5.42;;;;;;;21.65;100.00;100927.09;1805435;78;21018;-90
2021/08/12 20:38:17;;;;;;;7.78;6.10;;;;;;;21.62;100.00;100925.64;1826437;77;20990;-88
2021/08/12 20:40:45;;;;;;;6.08;5.53;;;;;;;21.58;100.00;100927.83;1805408;78;22057;-90
2021/08/12 20:43:12;;;;;;;9.33;5.60;;;;;;;21.56;100.00;100929.80;1803217;78;21100;-90
2021/08/12 20:45:41;;;;;;;5.87;5.25;;;;;;;21.54;100.00;100928.34;1773804;78;21152;-90
2021/08/12 20:48:08;;;;;;;9.88;5.95;;;;;;;21.48;100.00;100937.01;1748853;78;21116;-89
2021/08/12 20:50:37;;;;;;;6.42;5.45;;;;;;;21.42;100.00;100935.89;1793892;78;21053;-90
2021/08/12 20:53:06;;;;;;;7.35;4.78;;;;;;;21.37;100.00;100938.27;1773856;80;21111;-89
2021/08/12 20:55:34;;;;;;;6.10;5.50;;;;;;;21.33;100.00;100931.67;1793561;78;21053;-90
2021/08/12 20:58:01;;;;;;;7.97;5.15;;;;;;;21.30;100.00;100936.83;1773691;78;21163;-89
2021/08/12 21:00:30;;;;;;;8.15;5.33;;;;;;;21.24;100.00;100938.87;1793481;78;21425;-88
2021/08/12 21:02:57;;;;;;;5.67;5.10;;;;;;;21.19;100.00;100945.21;1774191;80;21029;-90
2021/08/12 21:05:32;;;;;;;6.12;5.53;;;;;;;21.12;100.00;100946.41;1773799;80;21710;-89
2021/08/12 21:07:53;;;;;;;6.08;5.42;;;;;;;21.07;100.00;100944.28;1769741;78;21053;-89
2021/08/12 21:10:22;;;;;;;5.97;5.37;;;;;;;21.02;100.00;100946.66;1793017;78;21061;-89
2021/08/12 21:12:49;;;;;;;6.30;5.67;;;;;;;20.94;100.00;100936.93;1773072;80;20982;-90
2021/08/12 21:15:17;;;;;;;6.53;5.62;;;;;;;20.90;100.00;100934.33;1773049;80;21067;-90
2021/08/12 21:17:46;;;;;;;7.08;5.40;;;;;;;20.86;100.00;100937.50;1793200;78;21105;-89
2021/08/12 21:20:15;;;;;;;7.08;5.28;;;;;;;20.82;100.00;100942.80;1793013;78;21184;-88
2021/08/12 21:22:42;;;;;;;6.12;5.50;;;;;;;20.76;100.00;100943.84;1773236;78;21037;-88
2021/08/12 21:25:11;;;;;;;5.83;5.33;;;;;;;20.70;100.00;100948.95;1793118;78;21639;-89
2021/08/12 21:27:38;;;;;;;7.10;5.40;;;;;;;20.71;100.00;100961.20;1773096;80;20938;-89
2021/08/12 21:30:06;;;;;;;10.80;5.60;;;;;;;20.72;100.00;100958.36;1773141;78;20986;-88
2021/08/12 21:32:33;;;;;;;7.72;6.12;;;;;;;20.70;100.00;100953.77;1772820;80;21014;-89
2021/08/12 21:35:01;;;;;;;7.05;5.37;;;;;;;20.67;100.00;100951.97;1773477;80;20946;-89
2021/08/12 21:37:28;;;;;;;6.10;5.50;;;;;;;20.63;100.00;100950.17;1773235;80;21093;-87
2021/08/12 21:39:55;;;;;;;8.38;5.40;;;;;;;20.57;100.00;100944.23;1773533;80;21148;-90
2021/08/12 21:42:22;;;;;;;8.13;5.65;;;;;;;20.52;100.00;100948.71;1773233;80;21915;-89
2021/08/12 21:44:49;;;;;;;8.43;5.17;;;;;;;20.48;100.00;100954.84;1773802;79;21036;-89
2021/08/12 21:47:18;;;;;;;6.37;4.92;;;;;;;20.45;100.00;100945.95;1780110;78;21013;-88
2021/08/12 21:49:45;;;;;;;8.55;5.22;;;;;;;20.43;100.00;100942.65;1805007;78;21116;-88
2021/08/12 21:52:12;;;;;;;12.85;4.90;;;;;;;20.36;100.00;100949.63;1804968;78;21104;-88
2021/08/12 21:54:40;;;;;;;8.73;5.33;;;;;;;20.31;100.00;100951.97;1804818;78;21109;-87
2021/08/12 21:57:07;;;;;;;7.90;5.17;;;;;;;20.30;100.00;100955.09;1804641;76;21100;-89
2021/08/12 21:59:36;;;;;;;6.03;5.22;;;;;;;20.25;100.00;100965.38;1803549;78;21583;-88
2021/08/12 22:02:03;;;;;;;6.50;5.00;;;;;;;20.18;100.00;100963.90;1792701;78;21027;-88
2021/08/12 22:04:31;;;;;;;6.47;4.80;;;;;;;20.10;100.00;100960.47;1804850;77;21006;-87
2021/08/12 22:07:00;;;;;;;7.05;5.33;;;;;;;20.02;100.00;100963.95;1825491;77;20962;-88
2021/08/12 22:09:28;;;;;;;6.20;5.60;;;;;;;19.95;100.00;100965.62;1804962;78;21018;-88
2021/08/12 22:11:57;;;;;;;7.97;5.67;;;;;;;19.86;100.00;100970.11;1825750;77;20951;-87
2021/08/12 22:14:26;;;;;;;6.83;5.60;;;;;;;19.82;100.00;100969.59;1825592;77;20998;-87
2021/08/12 22:16:53;;;;;;;7.97;4.78;;;;;;;19.79;100.00;100966.45;1805280;78;21029;-88
2021/08/12 22:19:22;;;;;;;6.17;5.37;;;;;;;19.77;100.00;100966.60;1825523;77;21544;-87
2021/08/12 22:21:51;;;;;;;6.90;4.97;;;;;;;19.72;100.00;100966.29;1825289;77;21567;-88
2021/08/12 22:24:18;;;;;;;5.08;4.58;;;;;;;19.67;100.00;100961.50;1805023;77;21540;-88
2021/08/12 22:26:45;;;;;;;5.42;4.70;;;;;;;19.63;100.00;100964.13;1805009;77;21076;-88
2021/08/12 22:29:15;;;;;;;6.15;4.47;;;;;;;19.55;100.00;100968.94;1804908;78;21048;-88
2021/08/12 22:31:45;;;;;;;4.47;4.08;;;;;;;19.49;100.00;100968.30;1768958;79;21473;-89
2021/08/12 22:34:11;;;;;;;5.47;4.60;;;;;;;19.47;100.00;100969.45;1788940;78;21002;-88
2021/08/12 22:36:38;;;;;;;6.58;4.65;;;;;;;19.45;100.00;100975.39;1805142;78;21088;-89
2021/08/12 22:39:07;;;;;;;4.85;4.35;;;;;;;19.45;100.00;100982.80;1804874;78;21140;-88
2021/08/12 22:41:34;;;;;;;5.62;4.45;;;;;;;19.42;100.00;100981.83;1804694;78;21528;-88
2021/08/12 22:44:01;;;;;;;5.85;4.62;;;;;;;19.39;100.00;100983.47;1804810;77;21112;-88
2021/08/12 22:46:30;;;;;;;6.90;4.47;;;;;;;19.38;100.00;100988.41;1825301;77;21030;-88